Aérodrome :
LOGIN :

S'inscrire | Disclaimer

   EN    FR    IT 

 










Légende :    VFR   VFR Marginal   IFR   IFR Intensif   IFR Très Intensif
Visi : 
Plafond : 
>= 8 km
>= 3000ft
5 à 8 km
1000 à 3000 ft
1500m à 5 km
500 à 1000 ft
800 à 1500m
200 à 500 ft
< 800m
< 200 ft
Symboles :   Orages  Brouillard  Fortes neiges  Fortes précipitations  Vent > 20 kt
SIGMETs :   Divers  Orages  Givrage  Turbulence  Onde Orograph.  Cendres Volcan.






- Altitude de l'aérodrome : 404 ft
- Code IATA : ECN


LCEN - Ercan International

DERNIER METAR :
  • 200820Z 21003KT 9999 FEW025 SCT040 BKN080 12/07 Q1022 NOSIG RMK RWY11 00000KT

METARs EXPIRÉS :
  • 200750Z 00000KT 9999 FEW025 BKN080 11/06 Q1022 NOSIG RMK RWY11 00000KT
  • 200720Z 31003KT 9999 FEW025 SCT080 11/08 Q1021 NOSIG RMK RWY11 28003KT
  • 200650Z 00000KT 9999 FEW025 SCT080 09/08 Q1021 NOSIG RMK RWY11 00000KT
  • 200620Z 34006KT 280V010 9999 FEW020 SCT025 BKN080 08/06 Q1021 NOSIG RMK RWY11 30005KT
  • 200550Z 21004KT 9999 FEW020 SCT025 BKN080 08/06 Q1021 NOSIG RMK RWY11 25003KT

TAF TAF LCEN
Valide du 20 à 06h jusqu'au 21 à 06h UTC


200440Z 2006/2106 08015KT 9999 SCT025 BKN100
PROB30
TEMPO 2006/2010 5000 SHRA BKN025 BKN080



MET'MAP, la Météo Aéronautique d'un coup d'oeil ! - Copyright ORBIFLY Décembre 2007 - Disclaimer

ORBIFLY MET'MAP TEAM :

Programmation & Développement : Alexandra Zaïnal
Sur une idée originale de : Baudouin d'Aumeries
Assistance à la programmation : Marc-Olivier Méhu
Soutien technique & logistique : Manuel Goepfert

Contact : metmap@orbifly.com




SOURCES & CREDITS :

   NOAA